Leathersville, Georgia
Current Conditions -  °F | °C
As of 5:15 AM on Tuesday 27 Jan 2015 (Local Time) from KHQU Reporting Station
Scattered Clouds Scattered Clouds  
Wind Chill: -1°   Ceiling: Unl
Heat Index:   Visibility: 10mi
Dew Point: -1°   Wind: 5mph
Humidity: 86%   Direction: 260°W
Pressure: 29.89"   Gusts: 16mph
Location:  33.7816°N, 82.4511°W
Report Text: KHQU 271015Z AUTO 26004G14KT 10SM SCT075 02/00 A2989 RMK AO1 T00161005
Loading
Personal Weather Stations






























Interactive Weather Map New forecast layout! Learn more

10-Day Weather Forecast

Advertisements
Track Severe Weather on mobile